Time;durP1;ratioP1;P1;durP2;ratioP2;P2;SDS_P1;SDS_P2;PMS_P1;PMS_P2;Temp;Humidity;BMP_temperature;BMP_pressure;BME280_temperature;BME280_humidity;BME280_pressure;Samples;Min_cycle;Max_cycle;Signal;HPM_P1;HPM_P2
2023/09/21 00:01:03;;;;;;;1.45;0.98;;;17.30;84.10;;;;;;4971148;28;20050;-68
2023/09/21 00:03:34;;;;;;;0.10;0.10;;;17.30;84.10;;;;;;4971100;28;20610;-69
2023/09/21 00:06:00;;;;;;;0.00;0.00;;;17.30;84.10;;;;;;4970658;28;20051;-69
2023/09/21 00:08:26;;;;;;;0.00;0.00;;;17.30;84.20;;;;;;4971097;28;20042;-68
2023/09/21 00:10:52;;;;;;;0.10;0.10;;;17.30;84.10;;;;;;4959253;28;20042;-69
2023/09/21 00:13:26;;;;;;;0.10;0.10;;;17.30;84.10;;;;;;4957144;28;20065;-69
2023/09/21 00:15:52;;;;;;;0.00;0.00;;;17.30;84.10;;;;;;4970198;28;20046;-69
2023/09/21 00:18:21;;;;;;;0.00;0.00;;;17.30;84.10;;;;;;4970303;28;20134;-69
2023/09/21 00:20:52;;;;;;;0.00;0.00;;;17.30;84.00;;;;;;4970454;28;20133;-68
2023/09/21 00:23:20;;;;;;;;;;;17.30;83.90;;;;;;4971240;28;20570;-68
2023/09/21 00:25:47;;;;;;;0.00;0.00;;;17.40;84.00;;;;;;4970827;28;19980;-69
2023/09/21 00:28:13;;;;;;;0.00;0.00;;;17.30;83.90;;;;;;4969706;28;20049;-69
2023/09/21 00:30:40;;;;;;;0.00;0.00;;;17.40;83.90;;;;;;4969513;28;20101;-69
2023/09/21 00:33:09;;;;;;;0.35;0.35;;;17.40;83.80;;;;;;4970694;28;20124;-69
2023/09/21 00:35:39;;;;;;;0.00;0.00;;;17.40;83.80;;;;;;4970150;28;20039;-69
2023/09/21 00:38:07;;;;;;;0.10;0.10;;;17.40;83.80;;;;;;4970352;28;20439;-69
2023/09/21 00:40:32;;;;;;;0.00;0.00;;;17.50;83.80;;;;;;4970243;28;20050;-69
2023/09/21 00:43:01;;;;;;;0.00;0.00;;;17.50;83.70;;;;;;4970409;28;20407;-69
2023/09/21 00:45:26;;;;;;;0.00;0.00;;;17.40;83.70;;;;;;4970584;28;20101;-69
2023/09/21 00:47:53;;;;;;;0.28;0.28;;;17.50;83.60;;;;;;4970225;28;20051;-69
2023/09/21 00:50:21;;;;;;;0.00;0.00;;;17.50;83.50;;;;;;4971175;28;20546;-68
2023/09/21 00:52:49;;;;;;;0.00;0.00;;;17.50;83.50;;;;;;4973949;28;20058;-69
2023/09/21 00:55:23;;;;;;;0.00;0.00;;;17.50;83.40;;;;;;4973840;28;20041;-69
2023/09/21 00:57:55;;;;;;;0.00;0.00;;;17.50;83.30;;;;;;4971073;28;20428;-69
2023/09/21 01:00:25;;;;;;;0.00;0.00;;;17.60;83.30;;;;;;4966285;28;20039;-69
2023/09/21 01:02:53;;;;;;;0.00;0.00;;;17.50;83.30;;;;;;4974075;28;20043;-68
2023/09/21 01:05:21;;;;;;;0.00;0.00;;;17.50;83.20;;;;;;4974136;28;20125;-69
2023/09/21 01:07:48;;;;;;;0.00;0.00;;;17.60;83.20;;;;;;4973609;28;20049;-69
2023/09/21 01:10:15;;;;;;;0.10;0.10;;;17.50;83.20;;;;;;4968028;28;20042;-70
2023/09/21 01:12:44;;;;;;;0.00;0.00;;;17.60;83.30;;;;;;4974678;28;20083;-69
2023/09/21 01:15:10;;;;;;;0.00;0.00;;;17.50;83.20;;;;;;4975266;28;20579;-70
2023/09/21 01:17:44;;;;;;;0.00;0.00;;;17.50;83.20;;;;;;4960977;28;20047;-69
2023/09/21 01:20:27;;;;;;;0.00;0.00;;;17.50;83.20;;;;;;4974225;28;20113;-69
2023/09/21 01:23:10;;;;;;;0.00;0.00;;;17.50;83.20;;;;;;4974405;28;20051;-69
2023/09/21 01:25:39;;;;;;;0.00;0.00;;;17.50;83.20;;;;;;4963639;28;20093;-70
2023/09/21 01:28:06;;;;;;;0.00;0.00;;;17.50;83.10;;;;;;4974179;28;20885;-70
2023/09/21 01:30:32;;;;;;;0.00;0.00;;;17.50;83.10;;;;;;4973413;28;20059;-69
2023/09/21 01:33:01;;;;;;;0.10;0.10;;;17.50;83.10;;;;;;4973776;28;20206;-70
2023/09/21 01:35:28;;;;;;;0.00;0.00;;;17.40;83.20;;;;;;4973325;28;20051;-70
2023/09/21 01:37:54;;;;;;;0.00;0.00;;;17.40;83.20;;;;;;4972780;28;20046;-70
2023/09/21 01:40:20;;;;;;;0.00;0.00;;;17.50;83.20;;;;;;4973536;28;20093;-69
2023/09/21 01:42:50;;;;;;;0.00;0.00;;;17.50;83.10;;;;;;4973715;28;20046;-70
2023/09/21 01:45:16;;;;;;;0.10;0.10;;;17.50;83.10;;;;;;4973162;28;20043;-70
2023/09/21 01:47:43;;;;;;;0.00;0.00;;;17.50;83.10;;;;;;4973261;28;20047;-70
2023/09/21 01:50:11;;;;;;;0.05;0.05;;;17.50;83.20;;;;;;4973254;28;20050;-70
2023/09/21 01:52:38;;;;;;;0.00;0.00;;;17.40;83.10;;;;;;4972458;28;20039;-70
2023/09/21 01:55:07;;;;;;;0.00;0.00;;;17.40;83.20;;;;;;4973081;28;20050;-69
2023/09/21 01:57:33;;;;;;;0.00;0.00;;;17.40;83.30;;;;;;4972189;28;20050;-70
2023/09/21 02:00:06;;;;;;;0.25;0.25;;;17.40;83.20;;;;;;4972716;28;20054;-70
2023/09/21 02:02:34;;;;;;;0.00;0.00;;;17.40;83.30;;;;;;4972413;28;20654;-69
2023/09/21 02:05:00;;;;;;;0.00;0.00;;;17.40;83.30;;;;;;4972441;28;20452;-70
2023/09/21 02:07:25;;;;;;;0.00;0.00;;;17.40;83.30;;;;;;4972432;28;20054;-70
2023/09/21 02:09:51;;;;;;;0.00;0.00;;;17.30;83.50;;;;;;4972589;28;20089;-70
2023/09/21 02:12:16;;;;;;;0.00;0.00;;;17.30;83.50;;;;;;4973040;28;20047;-70
2023/09/21 02:14:42;;;;;;;0.00;0.00;;;17.30;83.50;;;;;;4972451;28;20484;-70
2023/09/21 02:17:08;;;;;;;0.00;0.00;;;17.30;83.60;;;;;;4972496;28;20468;-69
2023/09/21 02:19:37;;;;;;;0.00;0.00;;;17.30;83.70;;;;;;4972375;28;20566;-69
2023/09/21 02:22:06;;;;;;;0.00;0.00;;;17.30;83.70;;;;;;4971962;28;20050;-70
2023/09/21 02:24:32;;;;;;;0.00;0.00;;;17.20;83.70;;;;;;4972677;28;20057;-70
2023/09/21 02:26:58;;;;;;;0.00;0.00;;;17.30;83.70;;;;;;4972490;28;20042;-70
2023/09/21 02:29:23;;;;;;;0.00;0.00;;;17.30;83.70;;;;;;4972339;28;20039;-69
2023/09/21 02:31:49;;;;;;;0.00;0.00;;;17.30;83.70;;;;;;4971804;28;20154;-70
2023/09/21 02:34:16;;;;;;;0.00;0.00;;;17.30;83.70;;;;;;4973021;28;20046;-70
2023/09/21 02:36:43;;;;;;;0.00;0.00;;;17.30;83.70;;;;;;4971876;28;20543;-70
2023/09/21 02:39:09;;;;;;;0.00;0.00;;;17.30;83.70;;;;;;4972108;28;20062;-70
2023/09/21 02:41:34;;;;;;;0.00;0.00;;;17.30;83.60;;;;;;4972055;28;20047;-70
2023/09/21 02:44:00;;;;;;;0.00;0.00;;;17.30;83.60;;;;;;4972153;28;20129;-70
2023/09/21 02:46:28;;;;;;;0.00;0.00;;;17.30;83.60;;;;;;4972598;28;20046;-70
2023/09/21 02:48:54;;;;;;;0.25;0.25;;;17.30;83.50;;;;;;4971765;28;20050;-70
2023/09/21 02:51:20;;;;;;;0.00;0.00;;;17.40;83.50;;;;;;4972381;28;20031;-70
2023/09/21 02:53:46;;;;;;;0.10;0.10;;;17.30;83.50;;;;;;4971873;28;20085;-70
2023/09/21 02:56:12;;;;;;;0.00;0.00;;;17.30;83.40;;;;;;4972415;28;20047;-70
2023/09/21 02:58:40;;;;;;;0.47;0.47;;;17.40;83.40;;;;;;4971519;28;20043;-70
2023/09/21 03:01:06;;;;;;;0.15;0.15;;;17.40;83.40;;;;;;4972127;28;20054;-70
2023/09/21 03:03:31;;;;;;;0.00;0.00;;;17.30;83.30;;;;;;4958196;28;20118;-69
2023/09/21 03:05:58;;;;;;;0.08;0.08;;;17.30;83.30;;;;;;4964152;28;20428;-70
2023/09/21 03:08:23;;;;;;;0.00;0.00;;;17.40;83.20;;;;;;4973349;28;20047;-69
2023/09/21 03:10:52;;;;;;;0.00;0.00;;;17.40;83.20;;;;;;4972417;28;20055;-70
2023/09/21 03:13:18;;;;;;;0.00;0.00;;;17.40;83.20;;;;;;4969968;28;20153;-70
2023/09/21 03:15:50;;;;;;;0.00;0.00;;;17.40;83.10;;;;;;4972571;28;20062;-69
2023/09/21 03:18:16;;;;;;;0.00;0.00;;;17.40;83.00;;;;;;4972075;28;20065;-69
2023/09/21 03:20:43;;;;;;;0.00;0.00;;;17.40;83.10;;;;;;4972524;28;20106;-70
2023/09/21 03:23:10;;;;;;;0.00;0.00;;;17.40;83.20;;;;;;4972714;28;20050;-69
2023/09/21 03:25:41;;;;;;;0.00;0.00;;;17.40;83.10;;;;;;4971884;28;20039;-69
2023/09/21 03:28:13;;;;;;;0.00;0.00;;;17.40;83.10;;;;;;4972039;28;20082;-70
2023/09/21 03:30:39;;;;;;;0.00;0.00;;;17.40;83.00;;;;;;4972221;28;20093;-69
2023/09/21 03:33:06;;;;;;;0.00;0.00;;;17.40;83.00;;;;;;4964495;28;20047;-70
2023/09/21 03:35:32;;;;;;;0.00;0.00;;;17.40;83.00;;;;;;4965001;28;20051;-69
2023/09/21 03:37:58;;;;;;;0.00;0.00;;;17.50;83.00;;;;;;4972035;28;20092;-70
2023/09/21 03:40:25;;;;;;;0.00;0.00;;;17.50;83.00;;;;;;4971979;28;20054;-70
2023/09/21 03:42:57;;;;;;;0.00;0.00;;;17.50;83.10;;;;;;4972038;28;20039;-70
2023/09/21 03:45:26;;;;;;;0.15;0.15;;;17.50;83.00;;;;;;4971840;28;20059;-70
2023/09/21 03:47:53;;;;;;;0.35;0.35;;;17.50;83.00;;;;;;4971575;28;20058;-70
2023/09/21 03:50:19;;;;;;;0.00;0.00;;;17.60;83.10;;;;;;4971950;28;20077;-69
2023/09/21 03:52:47;;;;;;;0.00;0.00;;;17.50;83.00;;;;;;4954441;28;20412;-70
2023/09/21 03:55:15;;;;;;;0.00;0.00;;;17.60;83.10;;;;;;4970692;28;20054;-70
2023/09/21 03:57:41;;;;;;;0.00;0.00;;;17.60;83.10;;;;;;4971034;28;20050;-70
2023/09/21 04:02:53;;;;;;;0.00;0.00;;;17.50;83.20;;;;;;4970602;28;20058;-69
2023/09/21 04:05:19;;;;;;;0.00;0.00;;;17.60;83.30;;;;;;4970962;28;20050;-70
2023/09/21 04:07:46;;;;;;;0.00;0.00;;;17.60;83.30;;;;;;4970751;28;20504;-70
2023/09/21 04:10:12;;;;;;;0.00;0.00;;;17.50;83.30;;;;;;4970155;28;20047;-70
2023/09/21 04:12:39;;;;;;;0.00;0.00;;;17.50;83.30;;;;;;4971055;28;20459;-70
2023/09/21 04:15:08;;;;;;;1.08;0.20;;;17.60;83.30;;;;;;4952767;28;20567;-70
2023/09/21 04:17:35;;;;;;;0.00;0.00;;;17.50;83.30;;;;;;4953531;28;20039;-70
2023/09/21 04:20:04;;;;;;;0.08;0.08;;;17.60;83.50;;;;;;4970082;28;20501;-70
2023/09/21 04:22:31;;;;;;;0.00;0.00;;;17.50;83.80;;;;;;4952531;28;20479;-70
2023/09/21 04:25:01;;;;;;;0.00;0.00;;;17.50;83.80;;;;;;4970277;28;20786;-69
2023/09/21 04:27:27;;;;;;;0.10;0.10;;;17.50;83.80;;;;;;4970723;28;20047;-70
2023/09/21 04:29:52;;;;;;;0.00;0.00;;;17.50;83.80;;;;;;4969475;28;20467;-70
2023/09/21 04:32:18;;;;;;;0.00;0.00;;;17.50;83.80;;;;;;4970880;28;20066;-70
2023/09/21 04:34:44;;;;;;;0.00;0.00;;;17.50;83.90;;;;;;4970445;28;20054;-70
2023/09/21 04:37:10;;;;;;;0.00;0.00;;;17.50;83.90;;;;;;4970159;28;20530;-70
2023/09/21 04:39:35;;;;;;;0.00;0.00;;;17.50;83.90;;;;;;4970262;28;20050;-70
2023/09/21 04:42:01;;;;;;;0.00;0.00;;;17.50;84.00;;;;;;4969971;28;20057;-70
2023/09/21 04:44:30;;;;;;;0.00;0.00;;;17.40;84.20;;;;;;4968653;28;20051;-70
2023/09/21 04:46:56;;;;;;;0.00;0.00;;;17.40;84.30;;;;;;4959678;28;20049;-70
2023/09/21 04:49:21;;;;;;;0.00;0.00;;;17.40;84.40;;;;;;4969935;28;20121;-70
2023/09/21 04:51:47;;;;;;;0.00;0.00;;;17.50;84.40;;;;;;4969728;28;20043;-70
2023/09/21 04:54:13;;;;;;;0.00;0.00;;;17.40;84.40;;;;;;4970045;28;20039;-70
2023/09/21 04:56:39;;;;;;;0.00;0.00;;;17.50;84.40;;;;;;4970181;28;20492;-70
2023/09/21 04:59:04;;;;;;;0.00;0.00;;;17.50;84.40;;;;;;4969523;28;20039;-70
2023/09/21 05:01:31;;;;;;;0.00;0.00;;;17.40;84.40;;;;;;4969669;28;20045;-70
2023/09/21 05:03:56;;;;;;;0.00;0.00;;;17.40;84.50;;;;;;4969480;28;20105;-70
2023/09/21 05:06:23;;;;;;;0.00;0.00;;;17.50;84.50;;;;;;4970250;28;20039;-70
2023/09/21 05:08:49;;;;;;;0.00;0.00;;;17.40;84.50;;;;;;4969107;28;20047;-70
2023/09/21 05:11:15;;;;;;;0.00;0.00;;;17.40;84.60;;;;;;4969753;28;20548;-70
2023/09/21 05:13:40;;;;;;;0.00;0.00;;;17.50;84.60;;;;;;4966302;28;20042;-70
2023/09/21 05:16:06;;;;;;;0.00;0.00;;;17.50;84.70;;;;;;4970306;28;20039;-69
2023/09/21 05:18:31;;;;;;;0.00;0.00;;;17.50;84.80;;;;;;4969863;28;20058;-71
2023/09/21 05:20:57;;;;;;;0.00;0.00;;;17.50;84.90;;;;;;4970157;28;20173;-70
2023/09/21 05:23:22;;;;;;;0.00;0.00;;;17.50;85.00;;;;;;4970292;28;20455;-70
2023/09/21 05:25:48;;;;;;;0.00;0.00;;;17.50;85.10;;;;;;4969382;28;20047;-69
2023/09/21 05:28:16;;;;;;;0.00;0.00;;;17.50;85.10;;;;;;4966556;28;20042;-69
2023/09/21 05:30:42;;;;;;;0.00;0.00;;;17.50;85.20;;;;;;4967826;28;20081;-70
2023/09/21 05:33:07;;;;;;;0.00;0.00;;;17.50;85.20;;;;;;4969745;28;20063;-69
2023/09/21 05:35:34;;;;;;;0.00;0.00;;;17.50;85.40;;;;;;4970216;28;20070;-70
2023/09/21 05:38:00;;;;;;;0.00;0.00;;;17.50;85.40;;;;;;4971272;28;20089;-71
2023/09/21 05:40:26;;;;;;;0.00;0.00;;;17.50;85.30;;;;;;4962444;28;20084;-71
2023/09/21 05:42:51;;;;;;;0.00;0.00;;;17.50;85.20;;;;;;4953979;29;20039;-70
2023/09/21 05:45:17;;;;;;;0.00;0.00;;;17.50;85.20;;;;;;4970444;28;20038;-69
2023/09/21 05:47:42;;;;;;;0.00;0.00;;;17.50;85.40;;;;;;4966989;28;20077;-68
2023/09/21 05:50:08;;;;;;;0.00;0.00;;;17.50;85.40;;;;;;4972711;28;20043;-69
2023/09/21 05:52:35;;;;;;;0.00;0.00;;;17.50;85.50;;;;;;4958784;28;20554;-71
2023/09/21 05:55:01;;;;;;;0.10;0.10;;;17.50;85.40;;;;;;4963588;28;20047;-71
2023/09/21 05:57:27;;;;;;;0.00;0.00;;;17.50;85.50;;;;;;4972584;28;20093;-71
2023/09/21 05:59:53;;;;;;;0.00;0.00;;;17.40;85.50;;;;;;4963665;28;20162;-70
2023/09/21 06:02:19;;;;;;;0.00;0.00;;;17.40;85.60;;;;;;4968981;28;20042;-69
2023/09/21 06:04:46;;;;;;;0.00;0.00;;;17.30;85.60;;;;;;4972262;28;20459;-71
2023/09/21 06:07:11;;;;;;;0.13;0.13;;;17.40;85.70;;;;;;4971176;28;20117;-74
2023/09/21 06:09:37;;;;;;;0.00;0.00;;;17.40;87.00;;;;;;4952900;28;20174;-69
2023/09/21 06:12:03;;;;;;;0.00;0.00;;;17.80;87.30;;;;;;4972198;28;20127;-70
2023/09/21 06:14:28;;;;;;;0.00;0.00;;;18.10;86.50;;;;;;4972606;28;20074;-70
2023/09/21 06:16:54;;;;;;;0.00;0.00;;;18.20;85.40;;;;;;4972661;28;20062;-69
2023/09/21 06:19:26;;;;;;;0.00;0.00;;;18.40;84.50;;;;;;4955671;28;20097;-69
2023/09/21 06:21:56;;;;;;;0.00;0.00;;;18.60;83.80;;;;;;4972124;28;20395;-70
2023/09/21 06:24:24;;;;;;;0.00;0.00;;;18.60;83.30;;;;;;4971504;28;20043;-72
2023/09/21 06:26:52;;;;;;;0.00;0.00;;;18.70;83.00;;;;;;4952401;29;20397;-71
2023/09/21 06:29:19;;;;;;;0.00;0.00;;;18.50;83.10;;;;;;4952043;29;20444;-71
2023/09/21 06:31:46;;;;;;;0.00;0.00;;;18.40;83.20;;;;;;4951731;29;20051;-71
2023/09/21 06:34:12;;;;;;;0.00;0.00;;;18.20;83.50;;;;;;4955067;28;20432;-69
2023/09/21 06:36:37;;;;;;;0.00;0.00;;;18.10;83.80;;;;;;4939595;28;20051;-69
2023/09/21 06:39:04;;;;;;;0.00;0.00;;;17.90;84.20;;;;;;4972131;28;20094;-66
2023/09/21 06:41:30;;;;;;;0.00;0.00;;;18.00;84.60;;;;;;4972638;28;20121;-68
2023/09/21 06:43:56;;;;;;;0.00;0.00;;;18.10;84.50;;;;;;4970526;28;20078;-68
2023/09/21 06:46:22;;;;;;;0.00;0.00;;;18.10;84.60;;;;;;4952752;29;20078;-68
2023/09/21 06:48:48;;;;;;;0.00;0.00;;;18.10;84.50;;;;;;4957622;28;20132;-68
2023/09/21 06:51:14;;;;;;;0.00;0.00;;;18.00;84.50;;;;;;4937158;28;20046;-69
2023/09/21 06:53:40;;;;;;;1.00;0.73;;;18.00;84.80;;;;;;4971617;28;20512;-69
2023/09/21 06:56:06;;;;;;;0.00;0.00;;;18.00;85.00;;;;;;4971167;28;20055;-68
2023/09/21 06:58:31;;;;;;;0.03;0.03;;;17.90;85.10;;;;;;4971821;28;20066;-69
2023/09/21 07:01:01;;;;;;;0.00;0.00;;;17.90;85.10;;;;;;4971666;28;20043;-75
2023/09/21 07:03:27;;;;;;;0.20;0.20;;;17.80;85.30;;;;;;4970377;28;20050;-74
2023/09/21 07:05:52;;;;;;;0.03;0.03;;;17.70;85.70;;;;;;4971501;28;20050;-73
2023/09/21 07:08:19;;;;;;;0.10;0.10;;;17.70;85.90;;;;;;4971841;28;20050;-73
2023/09/21 07:10:45;;;;;;;0.00;0.00;;;17.50;86.40;;;;;;4971977;28;20527;-73
2023/09/21 07:13:12;;;;;;;0.00;0.00;;;17.40;86.50;;;;;;4938577;28;20054;-73
2023/09/21 07:15:38;;;;;;;0.10;0.10;;;17.20;86.10;;;;;;4954497;28;20133;-73
2023/09/21 07:18:07;;;;;;;0.00;0.00;;;16.90;86.10;;;;;;4970685;28;20055;-73
2023/09/21 07:20:34;;;;;;;0.65;0.50;;;16.60;86.00;;;;;;4971809;28;20427;-72
2023/09/21 07:23:00;;;;;;;0.00;0.00;;;16.30;86.50;;;;;;4971608;28;20046;-73
2023/09/21 07:25:28;;;;;;;0.00;0.00;;;16.10;87.30;;;;;;4971400;28;20065;-73
2023/09/21 07:27:54;;;;;;;0.00;0.00;;;16.00;87.70;;;;;;4969247;28;20459;-72
2023/09/21 07:30:25;;;;;;;0.00;0.00;;;16.00;88.20;;;;;;4971425;28;20047;-73
2023/09/21 07:32:51;;;;;;;0.00;0.00;;;16.20;88.10;;;;;;4967437;28;20090;-73
2023/09/21 07:35:19;;;;;;;0.00;0.00;;;16.30;87.70;;;;;;4970369;28;20053;-74
2023/09/21 07:37:46;;;;;;;0.00;0.00;;;16.50;87.40;;;;;;4970726;28;20191;-73
2023/09/21 07:40:13;;;;;;;0.00;0.00;;;16.60;87.00;;;;;;4970671;28;20047;-73
2023/09/21 07:42:42;;;;;;;0.00;0.00;;;16.90;86.60;;;;;;4970286;28;20058;-73
2023/09/21 07:45:09;;;;;;;0.00;0.00;;;17.00;86.10;;;;;;4951397;28;20396;-73
2023/09/21 07:47:34;;;;;;;0.00;0.00;;;17.10;85.80;;;;;;4969439;28;20039;-74
2023/09/21 07:50:00;;;;;;;0.00;0.00;;;17.20;85.50;;;;;;4970039;28;20057;-73
2023/09/21 07:52:28;;;;;;;0.00;0.00;;;17.30;85.10;;;;;;4965364;28;20093;-74
2023/09/21 07:54:54;;;;;;;0.00;0.00;;;17.40;84.90;;;;;;4968104;28;20058;-74
2023/09/21 07:57:20;;;;;;;0.00;0.00;;;17.50;84.60;;;;;;4970161;28;20496;-73
2023/09/21 07:59:46;;;;;;;0.00;0.00;;;17.60;84.40;;;;;;4969192;28;20051;-74
2023/09/21 08:02:12;;;;;;;0.00;0.00;;;17.50;84.20;;;;;;4952291;28;20531;-74
2023/09/21 08:04:38;;;;;;;0.00;0.00;;;17.40;83.50;;;;;;4970563;28;20055;-73
2023/09/21 08:07:07;;;;;;;0.00;0.00;;;17.30;83.60;;;;;;4970426;28;20130;-73
2023/09/21 08:09:33;;;;;;;0.00;0.00;;;17.20;83.90;;;;;;4970468;28;20057;-73
2023/09/21 08:11:59;;;;;;;0.00;0.00;;;17.20;84.20;;;;;;4970141;28;20054;-74
2023/09/21 08:14:25;;;;;;;0.00;0.00;;;17.30;84.30;;;;;;4970659;28;20047;-74
2023/09/21 08:16:55;;;;;;;0.00;0.00;;;17.30;84.20;;;;;;4963487;28;20074;-73
2023/09/21 08:19:21;;;;;;;0.20;0.20;;;17.30;84.20;;;;;;4937679;28;20393;-73
2023/09/21 08:21:48;;;;;;;0.00;0.00;;;17.50;84.10;;;;;;4963974;28;20047;-73
2023/09/21 08:24:13;;;;;;;0.00;0.00;;;17.50;84.10;;;;;;4951080;29;20073;-73
2023/09/21 08:26:40;;;;;;;0.00;0.00;;;17.60;84.00;;;;;;4951091;29;20106;-74
2023/09/21 08:29:06;;;;;;;0.00;0.00;;;17.60;83.90;;;;;;4933571;29;20043;-74
2023/09/21 08:31:32;;;;;;;0.00;0.00;;;17.70;83.80;;;;;;4955593;28;20082;-73
2023/09/21 08:33:59;;;;;;;0.00;0.00;;;17.80;83.80;;;;;;4970375;28;20098;-74
2023/09/21 08:36:25;;;;;;;0.00;0.00;;;17.80;83.70;;;;;;4968084;28;20126;-74
2023/09/21 08:38:50;;;;;;;0.00;0.00;;;17.80;83.70;;;;;;4953021;28;20186;-73
2023/09/21 08:41:16;;;;;;;0.00;0.00;;;17.90;83.60;;;;;;4969936;28;20034;-74
2023/09/21 08:43:43;;;;;;;0.00;0.00;;;18.00;83.70;;;;;;4969415;28;20050;-74
2023/09/21 08:46:11;;;;;;;0.00;0.00;;;18.00;83.60;;;;;;4969715;28;20051;-74
2023/09/21 08:48:39;;;;;;;0.00;0.00;;;18.00;83.60;;;;;;4953060;28;20490;-74
2023/09/21 08:51:09;;;;;;;0.00;0.00;;;18.00;83.60;;;;;;4953090;28;20054;-74
2023/09/21 08:53:35;;;;;;;0.00;0.00;;;18.10;83.60;;;;;;4970025;28;20447;-74
2023/09/21 08:56:02;;;;;;;0.00;0.00;;;18.00;83.30;;;;;;4969811;28;20122;-74
2023/09/21 08:58:34;;;;;;;0.00;0.00;;;18.10;83.40;;;;;;4970169;28;20119;-74
2023/09/21 09:01:00;;;;;;;0.00;0.00;;;18.10;83.40;;;;;;4970088;28;20046;-73
2023/09/21 09:03:26;;;;;;;0.00;0.00;;;18.10;83.40;;;;;;4969865;28;20050;-73
2023/09/21 09:05:58;;;;;;;0.00;0.00;;;18.10;83.40;;;;;;4970064;28;20112;-73
2023/09/21 09:08:24;;;;;;;;;;;18.10;83.30;;;;;;4970087;28;20051;-74
2023/09/21 09:10:51;;;;;;;0.00;0.00;;;18.10;83.30;;;;;;4953374;28;19965;-73
2023/09/21 09:13:17;;;;;;;0.00;0.00;;;18.10;83.30;;;;;;4973627;28;20046;-74
2023/09/21 09:15:45;;;;;;;0.00;0.00;;;18.10;83.20;;;;;;4972020;28;20047;-73
2023/09/21 09:18:11;;;;;;;0.00;0.00;;;18.10;83.10;;;;;;4969204;28;20050;-74
2023/09/21 09:20:37;;;;;;;0.00;0.00;;;18.10;83.20;;;;;;4973060;28;20130;-74
2023/09/21 09:23:10;;;;;;;0.00;0.00;;;18.10;83.20;;;;;;4972118;28;20162;-74
2023/09/21 09:25:36;;;;;;;0.00;0.00;;;18.10;83.20;;;;;;4954826;28;20121;-74
2023/09/21 09:28:04;;;;;;;0.10;0.10;;;18.10;83.20;;;;;;4971601;28;20407;-74
2023/09/21 09:30:29;;;;;;;0.00;0.00;;;18.10;83.20;;;;;;4952513;28;20050;-74
2023/09/21 09:32:55;;;;;;;0.00;0.00;;;18.10;83.20;;;;;;4972565;28;20499;-74
2023/09/21 09:35:21;;;;;;;0.00;0.00;;;18.10;83.10;;;;;;4972264;28;20078;-74
2023/09/21 09:37:47;;;;;;;0.00;0.00;;;18.10;83.10;;;;;;4971790;28;20054;-74
2023/09/21 09:40:14;;;;;;;0.00;0.00;;;18.10;83.10;;;;;;4939280;28;20058;-74
2023/09/21 09:42:41;;;;;;;0.00;0.00;;;18.10;83.10;;;;;;4952689;28;20047;-74
2023/09/21 09:45:18;;;;;;;0.00;0.00;;;18.10;83.10;;;;;;4971820;28;20046;-74
2023/09/21 09:47:50;;;;;;;0.00;0.00;;;18.10;83.10;;;;;;4952698;28;20538;-74
2023/09/21 09:50:20;;;;;;;0.00;0.00;;;18.10;83.10;;;;;;4937296;28;20100;-74
2023/09/21 09:52:49;;;;;;;0.00;0.00;;;18.10;83.10;;;;;;4969234;28;20046;-74
2023/09/21 09:55:15;;;;;;;0.00;0.00;;;18.10;83.10;;;;;;4971751;28;20042;-74
2023/09/21 09:57:45;;;;;;;0.00;0.00;;;18.10;83.10;;;;;;4971169;28;20065;-74
2023/09/21 10:00:20;;;;;;;3.13;0.52;;;18.10;83.00;;;;;;4972050;28;20047;-74
2023/09/21 10:02:47;;;;;;;0.00;0.00;;;18.10;83.00;;;;;;4972276;28;20053;-74
2023/09/21 10:05:14;;;;;;;0.20;0.20;;;18.10;83.00;;;;;;4971626;28;20061;-74
2023/09/21 10:07:39;;;;;;;0.00;0.00;;;18.10;83.00;;;;;;4955068;28;20825;-74
2023/09/21 10:10:08;;;;;;;0.00;0.00;;;18.10;83.00;;;;;;4971649;28;20138;-74
2023/09/21 10:12:34;;;;;;;0.00;0.00;;;18.00;83.10;;;;;;4971720;28;20106;-74
2023/09/21 10:15:03;;;;;;;0.00;0.00;;;18.00;83.20;;;;;;4971029;28;20105;-74
2023/09/21 10:17:29;;;;;;;0.00;0.00;;;18.00;83.40;;;;;;4972390;28;20054;-74
2023/09/21 10:20:14;;;;;;;0.00;0.00;;;18.00;83.50;;;;;;4972797;28;20059;-74
2023/09/21 10:22:44;;;;;;;0.00;0.00;;;18.00;83.50;;;;;;4952649;28;20051;-74
2023/09/21 10:25:12;;;;;;;0.00;0.00;;;18.00;83.60;;;;;;4966268;28;20047;-74
2023/09/21 10:27:39;;;;;;;0.00;0.00;;;18.00;83.60;;;;;;4971425;28;20078;-74
2023/09/21 10:30:09;;;;;;;0.00;0.00;;;18.00;83.60;;;;;;4971920;28;20051;-74
2023/09/21 10:32:48;;;;;;;0.00;0.00;;;18.00;83.60;;;;;;4954218;28;20049;-74
2023/09/21 10:35:49;;;;;;;0.20;0.20;;;18.00;83.70;;;;;;4972553;28;20133;-74
2023/09/21 10:38:16;;;;;;;0.00;0.00;;;18.00;83.70;;;;;;4972129;28;20055;-74
2023/09/21 10:40:43;;;;;;;0.17;0.17;;;18.00;83.60;;;;;;4938143;28;20511;-74
2023/09/21 10:43:42;;;;;;;0.00;0.00;;;18.00;83.60;;;;;;4972257;28;20055;-74
2023/09/21 10:46:20;;;;;;;0.00;0.00;;;18.10;83.50;;;;;;4954946;28;20051;-74
2023/09/21 10:48:46;;;;;;;0.00;0.00;;;18.10;83.50;;;;;;4972252;28;20539;-74
2023/09/21 10:51:12;;;;;;;0.00;0.00;;;18.10;83.50;;;;;;4971454;28;20062;-74
2023/09/21 10:53:38;;;;;;;0.00;0.00;;;18.00;83.50;;;;;;4954873;28;20043;-74
2023/09/21 10:56:05;;;;;;;0.00;0.00;;;17.90;83.50;;;;;;4971908;28;20113;-74
2023/09/21 10:58:34;;;;;;;0.00;0.00;;;17.90;83.60;;;;;;4972126;28;20133;-75
2023/09/21 11:01:00;;;;;;;0.00;0.00;;;17.70;83.50;;;;;;4971374;28;20049;-75
2023/09/21 11:03:27;;;;;;;0.00;0.00;;;17.60;83.70;;;;;;4954571;28;20121;-74
2023/09/21 11:05:54;;;;;;;0.00;0.00;;;17.70;83.90;;;;;;4971242;28;20058;-74
2023/09/21 11:08:26;;;;;;;0.00;0.00;;;17.70;84.00;;;;;;4953339;28;20407;-74
2023/09/21 11:10:53;;;;;;;0.00;0.00;;;17.70;84.00;;;;;;4970800;28;20122;-74
2023/09/21 11:13:18;;;;;;;0.00;0.00;;;17.80;84.00;;;;;;4954096;28;20042;-74
2023/09/21 11:15:45;;;;;;;0.00;0.00;;;17.90;84.00;;;;;;4970532;28;20069;-74
2023/09/21 11:18:11;;;;;;;0.00;0.00;;;17.90;84.00;;;;;;4971329;28;20058;-74
2023/09/21 11:20:40;;;;;;;0.20;0.20;;;18.00;83.90;;;;;;4971493;28;20070;-74
2023/09/21 11:23:07;;;;;;;0.00;0.00;;;18.00;83.80;;;;;;4971279;28;20085;-74
2023/09/21 11:25:33;;;;;;;0.00;0.00;;;18.00;83.80;;;;;;4953627;28;20070;-74
2023/09/21 11:27:59;;;;;;;0.00;0.00;;;17.90;83.70;;;;;;4971043;28;20050;-74
2023/09/21 11:30:28;;;;;;;0.00;0.00;;;17.80;83.70;;;;;;4971554;28;20125;-75
2023/09/21 11:32:57;;;;;;;0.00;0.00;;;17.60;83.50;;;;;;4970762;28;20050;-74
2023/09/21 11:35:23;;;;;;;0.00;0.00;;;17.50;83.90;;;;;;4970476;28;20416;-74
2023/09/21 11:37:50;;;;;;;0.15;0.13;;;17.50;84.00;;;;;;4971111;28;20476;-74
2023/09/21 11:40:21;;;;;;;0.00;0.00;;;17.50;84.10;;;;;;4937996;28;20558;-74
2023/09/21 11:42:47;;;;;;;0.00;0.00;;;17.40;84.40;;;;;;4953487;28;20066;-74
2023/09/21 11:45:17;;;;;;;0.00;0.00;;;17.30;84.60;;;;;;4969904;28;20046;-74
2023/09/21 11:47:50;;;;;;;0.00;0.00;;;17.30;84.70;;;;;;4970566;28;20094;-73
2023/09/21 11:50:27;;;;;;;0.00;0.00;;;17.30;85.00;;;;;;4970353;28;20134;-74
2023/09/21 11:52:56;;;;;;;0.00;0.00;;;17.30;84.80;;;;;;4953322;28;20073;-74
2023/09/21 11:55:32;;;;;;;0.00;0.00;;;17.50;84.80;;;;;;4970899;28;20105;-73
2023/09/21 11:58:09;;;;;;;0.22;0.22;;;17.60;84.70;;;;;;4970677;28;20430;-73
2023/09/21 12:00:45;;;;;;;0.00;0.00;;;17.60;84.60;;;;;;4970024;28;20054;-74
2023/09/21 12:03:21;;;;;;;0.00;0.00;;;17.60;84.40;;;;;;4970740;28;20054;-74
2023/09/21 12:05:47;;;;;;;0.08;0.08;;;17.70;84.40;;;;;;4952581;28;20050;-74
2023/09/21 12:08:16;;;;;;;0.10;0.10;;;17.70;84.30;;;;;;4966702;28;20458;-74
2023/09/21 12:10:47;;;;;;;0.00;0.00;;;17.70;84.10;;;;;;4953214;28;20058;-74
2023/09/21 12:13:15;;;;;;;0.00;0.00;;;17.70;84.00;;;;;;4944178;28;20495;-73
2023/09/21 12:15:44;;;;;;;0.10;0.10;;;17.80;83.90;;;;;;4970371;28;20685;-73
2023/09/21 12:18:10;;;;;;;0.00;0.00;;;17.80;84.00;;;;;;4953245;28;20054;-73
2023/09/21 12:20:38;;;;;;;0.00;0.00;;;17.80;83.90;;;;;;4969382;28;20070;-72
2023/09/21 12:23:05;;;;;;;0.00;0.00;;;17.80;83.90;;;;;;4968851;28;20054;-72
2023/09/21 12:25:32;;;;;;;0.00;0.00;;;17.80;83.90;;;;;;4953728;28;20050;-72
2023/09/21 12:27:57;;;;;;;0.00;0.00;;;17.60;83.90;;;;;;4970257;28;20416;-72
2023/09/21 12:30:23;;;;;;;0.00;0.00;;;17.60;84.00;;;;;;4969579;28;20035;-72
2023/09/21 12:32:49;;;;;;;0.00;0.00;;;17.60;84.10;;;;;;4968853;28;20031;-72
2023/09/21 12:35:17;;;;;;;0.00;0.00;;;17.50;84.40;;;;;;4953420;28;20058;-72
2023/09/21 12:37:44;;;;;;;0.00;0.00;;;17.50;84.50;;;;;;4952997;28;20567;-72
2023/09/21 12:40:14;;;;;;;0.00;0.00;;;17.30;84.60;;;;;;4970242;28;20051;-72
2023/09/21 12:42:41;;;;;;;0.00;0.00;;;17.30;84.70;;;;;;4969995;28;20070;-72
2023/09/21 12:45:09;;;;;;;0.00;0.00;;;17.30;84.90;;;;;;4937719;28;20053;-72
2023/09/21 12:47:35;;;;;;;0.00;0.00;;;17.20;85.10;;;;;;4970137;28;20058;-72
2023/09/21 12:50:00;;;;;;;0.00;0.00;;;17.20;85.20;;;;;;4969813;28;20047;-71
2023/09/21 12:52:29;;;;;;;0.00;0.00;;;17.20;85.50;;;;;;4952202;28;20078;-70